createdAt,value
2018-05-11T00:01:10.007Z,8.27
2018-05-11T00:03:36.646Z,8.15
2018-05-11T00:06:03.311Z,7.35
2018-05-11T00:08:29.944Z,7.22
2018-05-11T00:10:56.598Z,8.70
2018-05-11T00:13:23.248Z,10.38
2018-05-11T00:15:50.275Z,11.43
2018-05-11T00:18:16.950Z,12.40
2018-05-11T00:20:43.572Z,11.65
2018-05-11T00:23:10.233Z,10.18
2018-05-11T00:25:36.893Z,9.90
2018-05-11T00:28:03.528Z,9.68
2018-05-11T00:30:30.192Z,10.90
2018-05-11T00:32:56.827Z,10.68
2018-05-11T00:35:23.507Z,10.25
2018-05-11T00:37:50.129Z,9.85
2018-05-11T00:40:16.778Z,9.77
2018-05-11T00:42:43.423Z,9.05
2018-05-11T00:45:10.086Z,10.15
2018-05-11T00:47:36.770Z,10.13
2018-05-11T00:50:03.451Z,9.93
2018-05-11T00:52:30.094Z,9.70
2018-05-11T00:54:56.774Z,9.85
2018-05-11T00:57:23.419Z,10.10
2018-05-11T00:59:50.127Z,10.00
2018-05-11T01:02:16.773Z,9.50
2018-05-11T01:04:43.487Z,9.75
2018-05-11T01:07:10.110Z,10.90
2018-05-11T01:09:36.791Z,10.10
2018-05-11T01:12:03.488Z,9.60
2018-05-11T01:14:30.907Z,10.55
2018-05-11T01:16:57.631Z,10.55
2018-05-11T01:19:24.277Z,9.85
2018-05-11T01:21:50.985Z,11.40
2018-05-11T01:24:17.622Z,10.40
2018-05-11T01:26:44.273Z,10.55
2018-05-11T01:29:10.962Z,10.38
2018-05-11T01:31:37.613Z,10.23
2018-05-11T01:34:04.352Z,10.40
2018-05-11T01:36:31.057Z,10.82
2018-05-11T01:38:57.798Z,10.57
2018-05-11T01:41:24.498Z,10.45
2018-05-11T01:43:51.130Z,10.50
2018-05-11T01:46:17.794Z,10.50
2018-05-11T01:48:44.486Z,11.10
2018-05-11T01:51:11.114Z,11.80
2018-05-11T01:53:37.782Z,11.45
2018-05-11T01:56:04.465Z,10.80
2018-05-11T01:58:31.102Z,12.43
2018-05-11T02:00:57.975Z,10.90
2018-05-11T02:03:24.594Z,11.35
2018-05-11T02:05:51.256Z,11.77
2018-05-11T02:08:17.890Z,11.95
2018-05-11T02:10:44.550Z,13.10
2018-05-11T02:13:11.191Z,13.32
2018-05-11T02:15:37.842Z,11.95
2018-05-11T02:18:04.471Z,12.50
2018-05-11T02:20:31.230Z,13.57
2018-05-11T02:22:57.865Z,12.25
2018-05-11T02:25:24.609Z,13.75
2018-05-11T02:27:51.259Z,13.38
2018-05-11T02:30:17.922Z,12.63
2018-05-11T02:32:44.633Z,13.95
2018-05-11T02:35:11.306Z,11.88
2018-05-11T02:37:37.962Z,11.70
2018-05-11T02:40:04.587Z,11.48
2018-05-11T02:42:31.250Z,12.32
2018-05-11T02:44:57.875Z,11.88
2018-05-11T02:47:24.590Z,11.07
2018-05-11T02:49:51.258Z,12.27
2018-05-11T02:52:17.920Z,11.77
2018-05-11T02:54:44.552Z,13.02
2018-05-11T02:57:11.230Z,12.05
2018-05-11T02:59:37.875Z,13.80
2018-05-11T03:02:04.711Z,12.95
2018-05-11T03:04:31.412Z,13.20
2018-05-11T03:06:58.038Z,12.90
2018-05-11T03:09:24.716Z,11.90
2018-05-11T03:11:51.359Z,12.70
2018-05-11T03:14:18.094Z,12.55
2018-05-11T03:16:44.728Z,11.48
2018-05-11T03:19:11.445Z,12.13
2018-05-11T03:21:38.099Z,12.20
2018-05-11T03:24:05.010Z,13.73
2018-05-11T03:26:31.655Z,12.20
2018-05-11T03:28:58.363Z,12.35
2018-05-11T03:31:25.043Z,15.13
2018-05-11T03:33:51.668Z,13.73
2018-05-11T03:36:18.334Z,15.20
2018-05-11T03:38:44.946Z,13.93
2018-05-11T03:41:11.616Z,12.88
2018-05-11T03:43:38.314Z,14.18
2018-05-11T03:46:05.002Z,14.25
2018-05-11T03:48:31.655Z,14.02
2018-05-11T03:50:58.317Z,13.90
2018-05-11T03:53:24.974Z,13.27
2018-05-11T03:55:51.622Z,12.85
2018-05-11T03:58:18.275Z,12.68
2018-05-11T04:00:44.902Z,11.82
2018-05-11T04:03:17.562Z,11.80
2018-05-11T04:05:50.075Z,13.20
2018-05-11T04:08:22.671Z,13.98
2018-05-11T04:10:49.310Z,15.15
2018-05-11T04:13:16.025Z,14.73
2018-05-11T04:15:42.638Z,14.80
2018-05-11T04:18:09.729Z,15.05
2018-05-11T04:20:36.374Z,13.90
2018-05-11T04:23:03.085Z,15.00
2018-05-11T04:25:29.910Z,13.85
2018-05-11T04:27:56.578Z,15.32
2018-05-11T04:30:23.233Z,14.40
2018-05-11T04:32:49.872Z,14.77
2018-05-11T04:35:16.567Z,15.07
2018-05-11T04:37:43.253Z,16.70
2018-05-11T04:40:09.906Z,17.42
2018-05-11T04:42:36.618Z,20.37
2018-05-11T04:45:03.271Z,19.60
2018-05-11T04:47:29.951Z,18.08
2018-05-11T04:49:56.622Z,17.87
2018-05-11T04:52:23.355Z,18.85
2018-05-11T04:54:50.695Z,19.12
2018-05-11T04:57:17.444Z,20.80
2018-05-11T04:59:44.128Z,20.85
2018-05-11T05:02:10.817Z,21.25
2018-05-11T05:04:41.593Z,19.35
2018-05-11T05:07:08.267Z,20.80
2018-05-11T05:09:34.901Z,21.95
2018-05-11T05:12:01.597Z,20.45
2018-05-11T05:14:28.274Z,22.20
2018-05-11T05:16:54.934Z,18.30
2018-05-11T05:19:21.642Z,17.77
2018-05-11T05:21:48.233Z,18.40
2018-05-11T05:24:15.124Z,21.50
2018-05-11T05:26:41.810Z,20.95
2018-05-11T05:29:08.427Z,21.73
2018-05-11T05:31:35.090Z,21.77
2018-05-11T05:34:01.707Z,19.98
2018-05-11T05:36:28.396Z,22.30
2018-05-11T05:38:55.005Z,23.10
2018-05-11T05:41:21.705Z,21.37
2018-05-11T05:43:48.314Z,20.70
2018-05-11T05:46:14.963Z,18.42
2018-05-11T05:48:41.594Z,18.45
2018-05-11T05:51:08.212Z,20.55
2018-05-11T05:53:34.854Z,18.62
2018-05-11T05:56:01.469Z,18.70
2018-05-11T05:58:28.164Z,19.40
2018-05-11T06:00:54.765Z,19.23
2018-05-11T06:03:21.423Z,17.67
2018-05-11T06:05:48.035Z,19.70
2018-05-11T06:08:14.718Z,18.30
2018-05-11T06:10:41.306Z,18.83
2018-05-11T06:13:07.974Z,19.33
2018-05-11T06:15:35.344Z,18.05
2018-05-11T06:18:01.987Z,19.02
2018-05-11T06:20:28.605Z,18.15
2018-05-11T06:22:55.274Z,17.87
2018-05-11T06:25:21.922Z,18.62
2018-05-11T06:27:48.548Z,21.08
2018-05-11T06:30:15.186Z,20.30
2018-05-11T06:32:41.853Z,19.37
2018-05-11T06:35:08.530Z,18.48
2018-05-11T06:37:35.161Z,17.90
2018-05-11T06:40:01.825Z,18.42
2018-05-11T06:42:28.439Z,19.83
2018-05-11T06:44:55.123Z,21.73
2018-05-11T06:47:21.874Z,17.00
2018-05-11T06:49:48.522Z,17.60
2018-05-11T06:52:15.148Z,18.95
2018-05-11T06:54:41.793Z,19.80
2018-05-11T06:57:08.433Z,18.40
2018-05-11T06:59:35.062Z,19.52
2018-05-11T07:02:01.688Z,18.75
2018-05-11T07:04:28.367Z,18.42
2018-05-11T07:06:54.979Z,17.95
2018-05-11T07:09:21.766Z,18.50
2018-05-11T07:11:48.429Z,17.50
2018-05-11T07:14:15.075Z,15.90
2018-05-11T07:16:41.736Z,17.23
2018-05-11T07:19:09.142Z,16.52
2018-05-11T07:21:35.770Z,15.85
2018-05-11T07:24:02.449Z,14.30
2018-05-11T07:26:29.132Z,16.67
2018-05-11T07:28:55.771Z,16.20
2018-05-11T07:31:22.406Z,17.58
2018-05-11T07:33:49.024Z,17.42
2018-05-11T07:36:15.697Z,16.50
2018-05-11T07:38:42.342Z,16.00
2018-05-11T07:41:08.997Z,19.70
2018-05-11T07:43:35.630Z,17.48
2018-05-11T07:46:02.263Z,16.87
2018-05-11T07:48:28.887Z,18.25
2018-05-11T07:50:55.566Z,20.20
2018-05-11T07:53:22.203Z,18.40
2018-05-11T07:55:48.855Z,19.12
2018-05-11T07:58:15.531Z,18.70
2018-05-11T08:00:42.171Z,17.83
2018-05-11T08:03:08.823Z,18.20
2018-05-11T08:05:35.525Z,17.58
2018-05-11T08:08:02.205Z,19.17
2018-05-11T08:10:29.035Z,19.00
2018-05-11T08:12:55.682Z,18.75
2018-05-11T08:15:22.312Z,18.25
2018-05-11T08:17:48.973Z,16.60
2018-05-11T08:20:15.600Z,16.73
2018-05-11T08:22:42.259Z,16.45
2018-05-11T08:25:08.899Z,17.10
2018-05-11T08:27:35.551Z,17.00
2018-05-11T08:30:02.185Z,16.90
2018-05-11T08:32:28.830Z,17.73
2018-05-11T08:34:55.457Z,15.75
2018-05-11T08:37:22.131Z,16.37
2018-05-11T08:39:48.799Z,16.77
2018-05-11T08:42:15.428Z,17.00
2018-05-11T08:44:42.083Z,16.90
2018-05-11T08:47:08.713Z,16.77
2018-05-11T08:49:35.455Z,17.05
2018-05-11T08:52:02.026Z,17.37
2018-05-11T08:54:28.688Z,16.42
2018-05-11T08:56:55.340Z,15.18
2018-05-11T08:59:22.007Z,14.13
2018-05-11T09:01:48.670Z,14.85
2018-05-11T09:04:15.374Z,15.13
2018-05-11T09:06:42.002Z,14.20
2018-05-11T09:09:08.679Z,15.90
2018-05-11T09:11:35.291Z,15.63
2018-05-11T09:14:01.952Z,16.80
2018-05-11T09:16:28.620Z,14.13
2018-05-11T09:18:55.264Z,15.18
2018-05-11T09:21:21.930Z,13.70
2018-05-11T09:23:48.539Z,15.15
2018-05-11T09:26:15.208Z,14.25
2018-05-11T09:28:41.880Z,15.35
2018-05-11T09:31:08.550Z,15.38
2018-05-11T09:33:35.602Z,14.57
2018-05-11T09:36:02.279Z,13.77
2018-05-11T09:38:28.917Z,13.60
2018-05-11T09:40:55.574Z,15.10
2018-05-11T09:43:22.256Z,13.13
2018-05-11T09:45:48.884Z,15.15
2018-05-11T09:48:15.547Z,15.73
2018-05-11T09:50:42.179Z,14.75
2018-05-11T09:53:08.824Z,14.15
2018-05-11T09:55:35.458Z,14.75
2018-05-11T09:58:02.117Z,14.55
2018-05-11T10:00:28.758Z,14.90
2018-05-11T10:02:55.433Z,13.25
2018-05-11T10:05:22.090Z,14.95
2018-05-11T10:07:48.754Z,14.13
2018-05-11T10:10:15.437Z,14.95
2018-05-11T10:12:42.129Z,14.80
2018-05-11T10:15:08.806Z,16.48
2018-05-11T10:17:35.480Z,13.80
2018-05-11T10:20:02.146Z,14.20
2018-05-11T10:22:28.859Z,13.77
2018-05-11T10:24:55.595Z,12.35
2018-05-11T10:27:22.256Z,12.25
2018-05-11T10:29:48.900Z,11.65
2018-05-11T10:32:15.568Z,11.05
2018-05-11T10:34:46.105Z,11.85
2018-05-11T10:37:12.752Z,11.45
2018-05-11T10:39:39.415Z,10.48
2018-05-11T10:42:06.115Z,12.02
2018-05-11T10:44:32.791Z,12.90
2018-05-11T10:46:59.467Z,8.95
2018-05-11T10:49:26.119Z,8.45
2018-05-11T10:51:52.799Z,9.77
2018-05-11T10:54:19.455Z,9.55
2018-05-11T10:56:46.146Z,8.95
2018-05-11T10:59:12.772Z,9.55
2018-05-11T11:01:39.478Z,9.70
2018-05-11T11:04:06.108Z,8.77
2018-05-11T11:06:32.752Z,9.48
2018-05-11T11:09:00.297Z,9.20
2018-05-11T11:11:26.989Z,8.75
2018-05-11T11:13:53.653Z,9.35
2018-05-11T11:16:20.360Z,11.40
2018-05-11T11:18:47.038Z,10.27
2018-05-11T11:21:13.715Z,10.68
2018-05-11T11:23:40.374Z,10.50
2018-05-11T11:26:07.041Z,9.48
2018-05-11T11:28:33.745Z,9.80
2018-05-11T11:31:01.491Z,10.27
2018-05-11T11:33:28.171Z,10.10
2018-05-11T11:35:54.834Z,10.20
2018-05-11T11:38:21.475Z,10.70
2018-05-11T11:40:48.131Z,10.07
2018-05-11T11:43:14.800Z,10.07
2018-05-11T11:45:41.431Z,9.87
2018-05-11T11:48:09.060Z,8.30
2018-05-11T11:50:35.697Z,9.00
2018-05-11T11:53:02.395Z,9.50
2018-05-11T11:55:29.024Z,9.43
2018-05-11T11:57:55.663Z,8.33
2018-05-11T12:00:22.309Z,8.47
2018-05-11T12:02:49.058Z,10.07
2018-05-11T12:05:15.746Z,9.50
2018-05-11T12:07:42.375Z,8.63
2018-05-11T12:10:09.043Z,9.57
2018-05-11T12:12:35.675Z,8.45
2018-05-11T12:15:02.331Z,7.73
2018-05-11T12:17:28.995Z,8.17
2018-05-11T12:19:55.656Z,6.87
2018-05-11T12:22:22.298Z,7.10
2018-05-11T12:24:49.162Z,8.40
2018-05-11T12:27:15.887Z,8.27
2018-05-11T12:29:42.525Z,7.97
2018-05-11T12:32:09.176Z,7.83
2018-05-11T12:34:35.878Z,9.80
2018-05-11T12:37:02.499Z,8.43
2018-05-11T12:39:29.170Z,8.00
2018-05-11T12:41:55.800Z,9.27
2018-05-11T12:44:22.436Z,6.90
2018-05-11T12:46:49.139Z,8.40
2018-05-11T12:49:15.759Z,8.33
2018-05-11T12:51:42.417Z,7.77
2018-05-11T12:54:09.043Z,7.73
2018-05-11T12:56:35.698Z,7.60
2018-05-11T12:59:02.322Z,7.40
2018-05-11T13:01:28.992Z,7.70
2018-05-11T13:03:55.613Z,7.17
2018-05-11T13:06:22.288Z,7.10
2018-05-11T13:08:48.981Z,6.00
2018-05-11T13:11:15.600Z,5.97
2018-05-11T13:13:42.269Z,6.50
2018-05-11T13:16:08.940Z,6.97
2018-05-11T13:18:35.554Z,5.93
2018-05-11T13:21:02.342Z,7.57
2018-05-11T13:23:28.971Z,6.67
2018-05-11T13:25:55.628Z,6.30
2018-05-11T13:28:22.254Z,5.73
2018-05-11T13:30:48.884Z,5.57
2018-05-11T13:33:15.622Z,6.90
2018-05-11T13:35:42.295Z,6.20
2018-05-11T13:38:08.926Z,5.00
2018-05-11T13:40:35.580Z,4.87
2018-05-11T13:43:02.243Z,5.33
2018-05-11T13:45:28.865Z,4.90
2018-05-11T13:47:55.629Z,5.70
2018-05-11T13:50:22.251Z,5.07
2018-05-11T13:52:48.946Z,5.60
2018-05-11T13:55:15.581Z,5.20
2018-05-11T13:57:42.218Z,5.47
2018-05-11T14:00:08.855Z,5.40
2018-05-11T14:02:35.519Z,5.00
2018-05-11T14:05:02.173Z,5.00
2018-05-11T14:07:28.824Z,5.00
2018-05-11T14:09:55.599Z,4.97
2018-05-11T14:12:22.242Z,4.80
2018-05-11T14:14:48.919Z,4.47
2018-05-11T14:17:15.583Z,5.07
2018-05-11T14:19:42.249Z,5.23
2018-05-11T14:22:08.892Z,5.47
2018-05-11T14:24:35.561Z,5.33
2018-05-11T14:27:02.215Z,5.17
2018-05-11T14:29:28.864Z,4.87
2018-05-11T14:31:55.560Z,4.83
2018-05-11T14:34:22.129Z,4.40
2018-05-11T14:36:48.742Z,4.40
2018-05-11T14:39:15.457Z,5.10
2018-05-11T14:41:42.043Z,4.90
2018-05-11T14:44:08.695Z,4.80
2018-05-11T14:46:35.347Z,4.67
2018-05-11T14:49:02.231Z,5.03
2018-05-11T14:51:28.905Z,4.13
2018-05-11T14:53:55.600Z,3.63
2018-05-11T14:56:22.252Z,3.97
2018-05-11T14:58:48.911Z,3.90
2018-05-11T15:01:15.534Z,3.80
2018-05-11T15:03:42.177Z,3.37
2018-05-11T15:06:08.838Z,3.03
2018-05-11T15:08:35.498Z,3.30
2018-05-11T15:11:02.346Z,3.90
2018-05-11T15:13:28.987Z,3.40
2018-05-11T15:15:55.683Z,3.07
2018-05-11T15:18:22.359Z,2.93
2018-05-11T15:20:49.021Z,3.10
2018-05-11T15:23:15.653Z,3.13
2018-05-11T15:25:42.992Z,3.13
2018-05-11T15:28:09.632Z,2.77
2018-05-11T15:30:36.255Z,3.27
2018-05-11T15:33:02.934Z,3.43
2018-05-11T15:35:29.572Z,3.20
2018-05-11T15:37:56.234Z,3.90
2018-05-11T15:40:22.941Z,3.23
2018-05-11T15:42:49.514Z,3.53
2018-05-11T15:45:16.229Z,3.73
2018-05-11T15:47:42.870Z,2.90
2018-05-11T15:50:09.547Z,2.67
2018-05-11T15:52:36.193Z,3.00
2018-05-11T15:55:02.904Z,2.77
2018-05-11T15:57:29.536Z,3.30
2018-05-11T15:59:56.181Z,3.90
2018-05-11T16:02:22.800Z,3.37
2018-05-11T16:04:49.473Z,3.07
2018-05-11T16:07:16.100Z,3.53
2018-05-11T16:09:42.742Z,3.37
2018-05-11T16:12:09.370Z,3.40
2018-05-11T16:14:36.034Z,3.60
2018-05-11T16:17:02.684Z,3.40
2018-05-11T16:19:29.327Z,2.90
2018-05-11T16:21:55.974Z,3.47
2018-05-11T16:24:22.643Z,3.50
2018-05-11T16:26:49.318Z,3.40
2018-05-11T16:29:15.958Z,3.40
2018-05-11T16:31:42.650Z,4.20
2018-05-11T16:34:09.441Z,4.27
2018-05-11T16:36:36.106Z,3.70
2018-05-11T16:39:02.735Z,4.40
2018-05-11T16:41:29.384Z,4.63
2018-05-11T16:43:55.998Z,5.07
2018-05-11T16:46:22.660Z,4.70
2018-05-11T16:48:49.308Z,5.20
2018-05-11T16:51:15.981Z,4.90
2018-05-11T16:53:42.591Z,4.67
2018-05-11T16:56:09.249Z,4.93
2018-05-11T16:58:35.921Z,4.70
2018-05-11T17:01:02.564Z,5.57
2018-05-11T17:03:29.225Z,5.97
2018-05-11T17:05:55.884Z,5.23
2018-05-11T17:08:22.603Z,4.87
2018-05-11T17:10:49.291Z,5.27
2018-05-11T17:13:17.289Z,5.83
2018-05-11T17:15:43.969Z,5.70
2018-05-11T17:18:11.698Z,5.20
2018-05-11T17:20:39.034Z,5.00
2018-05-11T17:23:05.739Z,4.73
2018-05-11T17:25:32.386Z,4.70
2018-05-11T17:27:59.093Z,4.77
2018-05-11T17:30:26.248Z,5.43
2018-05-11T17:32:52.921Z,5.43
2018-05-11T17:35:19.650Z,5.67
2018-05-11T17:37:46.354Z,5.47
2018-05-11T17:40:13.039Z,5.13
2018-05-11T17:42:39.718Z,4.83
2018-05-11T17:45:06.370Z,5.10
2018-05-11T17:47:33.056Z,5.00
2018-05-11T17:49:59.741Z,5.00
2018-05-11T17:52:26.863Z,5.20
2018-05-11T17:54:53.552Z,4.70
2018-05-11T17:57:24.558Z,4.33
2018-05-11T17:59:51.196Z,5.07
2018-05-11T18:02:18.147Z,4.27
2018-05-11T18:04:48.962Z,6.10
2018-05-11T18:07:15.622Z,7.50
2018-05-11T18:09:42.331Z,5.33
2018-05-11T18:12:09.051Z,5.65
2018-05-11T18:14:35.732Z,5.70
2018-05-11T18:17:02.440Z,5.07
2018-05-11T18:19:29.097Z,4.60
2018-05-11T18:21:55.770Z,3.90
2018-05-11T18:24:22.479Z,4.97
2018-05-11T18:26:49.164Z,5.13
2018-05-11T18:29:15.844Z,4.90
2018-05-11T18:31:42.571Z,5.10
2018-05-11T18:34:09.246Z,4.47
2018-05-11T18:36:35.971Z,5.10
2018-05-11T18:39:02.670Z,4.80
2018-05-11T18:41:29.367Z,4.97
2018-05-11T18:43:56.048Z,5.05
2018-05-11T18:46:22.742Z,4.18
2018-05-11T18:48:49.433Z,4.72
2018-05-11T18:51:16.140Z,4.68
2018-05-11T18:53:43.075Z,5.25
2018-05-11T18:56:09.526Z,4.70
2018-05-11T18:58:36.312Z,4.82
2018-05-11T19:01:03.057Z,6.22
2018-05-11T19:03:29.718Z,5.73
2018-05-11T19:05:56.432Z,5.43
2018-05-11T19:08:27.173Z,5.72
2018-05-11T19:10:53.879Z,5.25
2018-05-11T19:13:20.628Z,5.85
2018-05-11T19:15:47.782Z,5.22
2018-05-11T19:18:14.454Z,4.97
2018-05-11T19:20:41.247Z,5.70
2018-05-11T19:23:07.943Z,5.15
2018-05-11T19:25:34.650Z,5.45
2018-05-11T19:28:01.364Z,6.07
2018-05-11T19:30:28.116Z,5.25
2018-05-11T19:32:54.775Z,4.93
2018-05-11T19:35:21.464Z,4.60
2018-05-11T19:37:48.867Z,5.50
2018-05-11T19:40:15.665Z,5.05
2018-05-11T19:42:42.378Z,4.55
2018-05-11T19:45:09.244Z,5.80
2018-05-11T19:47:35.977Z,5.53
2018-05-11T19:50:02.690Z,5.45
2018-05-11T19:52:29.447Z,4.87
2018-05-11T19:54:56.201Z,7.20
2018-05-11T19:57:26.842Z,5.82
2018-05-11T19:59:53.512Z,7.55
2018-05-11T20:02:24.534Z,7.18
2018-05-11T20:04:51.257Z,7.20
2018-05-11T20:07:17.969Z,8.07
2018-05-11T20:09:44.701Z,7.70
2018-05-11T20:12:11.498Z,7.30
2018-05-11T20:14:38.214Z,8.05
2018-05-11T20:17:04.922Z,7.97
2018-05-11T20:19:31.682Z,9.32
2018-05-11T20:21:59.289Z,7.75
2018-05-11T20:24:30.053Z,7.68
2018-05-11T20:26:57.083Z,8.18
2018-05-11T20:29:23.762Z,8.77
2018-05-11T20:31:50.452Z,8.95
2018-05-11T20:34:17.131Z,7.43
2018-05-11T20:36:43.829Z,8.40
2018-05-11T20:39:10.606Z,8.63
2018-05-11T20:41:37.418Z,7.60
2018-05-11T20:44:04.019Z,7.80
2018-05-11T20:46:30.816Z,8.55
2018-05-11T20:48:57.498Z,9.10
2018-05-11T20:51:24.175Z,8.50
2018-05-11T20:53:50.896Z,8.93
2018-05-11T20:56:17.649Z,9.75
2018-05-11T20:58:44.390Z,9.32
2018-05-11T21:01:11.104Z,8.38
2018-05-11T21:03:37.859Z,8.57
2018-05-11T21:06:04.522Z,9.63
2018-05-11T21:08:31.250Z,8.80
2018-05-11T21:10:58.025Z,8.50
2018-05-11T21:13:24.739Z,8.30
2018-05-11T21:15:51.431Z,8.45
2018-05-11T21:18:18.113Z,9.02
2018-05-11T21:20:44.811Z,9.02
2018-05-11T21:23:11.502Z,8.25
2018-05-11T21:25:38.314Z,8.90
2018-05-11T21:28:05.009Z,7.85
2018-05-11T21:30:31.692Z,7.95
2018-05-11T21:32:58.402Z,8.98
2018-05-11T21:35:25.106Z,9.52
2018-05-11T21:37:51.789Z,9.35
2018-05-11T21:40:18.472Z,9.05
2018-05-11T21:42:45.130Z,9.13
2018-05-11T21:45:11.829Z,8.80
2018-05-11T21:47:38.483Z,8.00
2018-05-11T21:50:05.223Z,8.25
2018-05-11T21:52:31.924Z,8.35
2018-05-11T21:54:58.643Z,9.02
2018-05-11T21:57:25.313Z,8.55
2018-05-11T21:59:52.064Z,8.52
2018-05-11T22:02:18.709Z,9.00
2018-05-11T22:04:45.399Z,8.82
2018-05-11T22:07:12.304Z,8.93
2018-05-11T22:09:38.995Z,10.15
2018-05-11T22:12:05.668Z,8.85
2018-05-11T22:14:32.682Z,9.35
2018-05-11T22:16:59.365Z,9.30
2018-05-11T22:19:26.009Z,8.60
2018-05-11T22:21:52.680Z,9.48
2018-05-11T22:24:19.315Z,9.65
2018-05-11T22:26:46.006Z,9.50
2018-05-11T22:29:12.660Z,9.95
2018-05-11T22:31:39.560Z,9.50
2018-05-11T22:34:06.206Z,9.85
2018-05-11T22:36:32.855Z,9.82
2018-05-11T22:38:59.527Z,10.23
2018-05-11T22:41:26.183Z,9.43
2018-05-11T22:43:52.841Z,9.68
2018-05-11T22:46:19.517Z,8.90
2018-05-11T22:48:46.178Z,9.23
2018-05-11T22:51:12.828Z,10.05
2018-05-11T22:53:39.483Z,9.60
2018-05-11T22:56:06.166Z,9.63
2018-05-11T22:58:32.814Z,9.18
2018-05-11T23:00:59.490Z,9.40
2018-05-11T23:03:26.170Z,9.30
2018-05-11T23:05:52.818Z,8.55
2018-05-11T23:08:19.480Z,9.73
2018-05-11T23:10:46.119Z,10.00
2018-05-11T23:13:12.750Z,9.70
2018-05-11T23:15:39.390Z,9.52
2018-05-11T23:18:06.058Z,9.45
2018-05-11T23:20:32.705Z,9.55
2018-05-11T23:22:59.386Z,9.43
2018-05-11T23:25:26.012Z,10.27
2018-05-11T23:27:52.805Z,9.88
2018-05-11T23:30:19.675Z,10.55
2018-05-11T23:32:46.340Z,9.98
2018-05-11T23:35:13.044Z,9.75
2018-05-11T23:37:40.300Z,10.45
2018-05-11T23:40:06.955Z,10.48
2018-05-11T23:42:33.574Z,9.85
2018-05-11T23:45:00.276Z,9.75
2018-05-11T23:47:26.938Z,11.20
2018-05-11T23:49:53.596Z,10.50
2018-05-11T23:52:20.265Z,11.07
2018-05-11T23:54:46.936Z,10.93
2018-05-11T23:57:13.583Z,11.07
2018-05-11T23:59:40.259Z,10.77
